Saint Charles, South Dakota
Current Conditions -  °F | °C
As of 9:53 PM on Thursday 27 Nov 2014 (Local Time) from KICR Reporting Station
Broken Clouds Broken Clouds  
Wind Chill: 29°   Ceiling: 10000
Heat Index: 39°   Visibility: 10mi
Dew Point: 23°   Wind: 22mph
Humidity: 53%   Direction: 200°SSW
Pressure: 29.85"   Gusts: NA
Location:  43.09°N, 99.1°W
Report Text: KICR 280353Z AUTO 20019KT 10SM BKN100 04/M05 A2985 RMK AO2 PK WND 19026/0326 SLP131 T00391050
Loading
Personal Weather Stations






























Interactive Weather Map New forecast layout! Learn more

10-Day Weather Forecast

Advertisements
Track Severe Weather on mobile